Time;durP1;ratioP1;P1;durP2;ratioP2;P2;SDS_P1;SDS_P2;PMS_P1;PMS_P2;Temp;Humidity;BMP_temperature;BMP_pressure;BME280_temperature;BME280_humidity;BME280_pressure;Samples;Min_cycle;Max_cycle;Signal;HPM_P1;HPM_P2
2023/05/08 00:01:52;;;;;;;7.37;3.80;;;;;;;;;;5004809;28;20117;-63
2023/05/08 00:04:19;;;;;;;7.20;4.07;;;;;;;;;;5001573;28;20497;-63
2023/05/08 00:06:44;;;;;;;7.43;4.00;;;;;;;;;;5001918;28;20014;-63
2023/05/08 00:09:10;;;;;;;7.97;4.05;;;;;;;;;;5002460;28;20104;-62
2023/05/08 00:11:35;;;;;;;7.32;3.95;;;;;;;;;;5010003;28;20028;-64
2023/05/08 00:14:00;;;;;;;9.30;4.27;;;;;;;;;;4997853;28;20018;-64
2023/05/08 00:16:25;;;;;;;7.38;4.07;;;;;;;;;;5009586;28;20489;-63
2023/05/08 00:18:52;;;;;;;6.77;4.00;;;;;;;;;;5004160;28;20465;-63
2023/05/08 00:21:17;;;;;;;;;;;;;;;;;;5014771;28;20111;-64
2023/05/08 00:23:42;;;;;;;7.97;4.07;;;;;;;;;;5003896;28;19973;-64
2023/05/08 00:26:07;;;;;;;6.38;3.50;;;;;;;;;;5008750;28;20040;-64
2023/05/08 00:28:32;;;;;;;6.57;3.78;;;;;;;;;;4998905;28;20422;-62
2023/05/08 00:31:01;;;;;;;7.70;4.00;;;;;;;;;;4993153;28;20019;-63
2023/05/08 00:33:26;;;;;;;7.75;4.28;;;;;;;;;;4998117;28;20025;-63
2023/05/08 00:35:57;;;;;;;8.93;4.30;;;;;;;;;;5005199;28;20036;-64
2023/05/08 00:38:22;;;;;;;7.18;4.00;;;;;;;;;;5003868;28;20409;-63
2023/05/08 00:40:47;;;;;;;8.25;4.15;;;;;;;;;;5004296;28;20125;-62
2023/05/08 00:43:12;;;;;;;8.20;4.32;;;;;;;;;;5002673;28;20023;-64
2023/05/08 00:45:38;;;;;;;7.78;4.05;;;;;;;;;;5009991;28;20033;-63
2023/05/08 00:48:03;;;;;;;7.57;4.30;;;;;;;;;;5005780;28;20045;-63
2023/05/08 00:50:29;;;;;;;8.13;4.30;;;;;;;;;;5000994;28;20357;-63
2023/05/08 00:52:55;;;;;;;8.02;4.28;;;;;;;;;;5005556;28;20029;-62
2023/05/08 00:55:20;;;;;;;7.85;3.85;;;;;;;;;;5009854;28;20469;-63
2023/05/08 00:57:46;;;;;;;8.03;3.90;;;;;;;;;;5007127;28;20544;-63
2023/05/08 01:00:11;;;;;;;7.55;4.22;;;;;;;;;;4997620;28;20033;-63
2023/05/08 01:02:37;;;;;;;10.15;4.63;;;;;;;;;;5002104;28;20026;-63
2023/05/08 01:05:02;;;;;;;8.60;4.00;;;;;;;;;;5005973;28;20333;-62
2023/05/08 01:07:28;;;;;;;7.67;4.13;;;;;;;;;;5002612;28;20109;-63
2023/05/08 01:09:53;;;;;;;8.40;4.20;;;;;;;;;;5002863;28;20026;-62
2023/05/08 01:12:36;;;;;;;7.68;4.10;;;;;;;;;;5007076;28;20389;-63
2023/05/08 01:15:12;;;;;;;7.13;3.83;;;;;;;;;;5001956;28;20026;-62
2023/05/08 01:17:46;;;;;;;7.93;4.50;;;;;;;;;;5005628;28;20089;-62
2023/05/08 01:20:18;;;;;;;10.32;4.63;;;;;;;;;;4994088;28;20030;-63
2023/05/08 01:22:43;;;;;;;7.45;4.18;;;;;;;;;;5005069;28;20021;-64
2023/05/08 01:25:23;;;;;;;8.15;4.45;;;;;;;;;;5000838;28;20022;-63
2023/05/08 01:28:00;;;;;;;8.77;4.45;;;;;;;;;;5000227;28;20432;-62
2023/05/08 01:30:41;;;;;;;9.50;4.55;;;;;;;;;;4996316;28;20113;-63
2023/05/08 01:33:26;;;;;;;8.25;4.65;;;;;;;;;;5007326;28;20386;-63
2023/05/08 01:35:57;;;;;;;8.88;4.22;;;;;;;;;;4999517;28;20057;-62
2023/05/08 01:38:32;;;;;;;8.00;4.55;;;;;;;;;;5005483;28;20044;-63
2023/05/08 01:41:07;;;;;;;8.55;4.60;;;;;;;;;;4998360;28;20036;-63
2023/05/08 01:43:51;;;;;;;8.57;4.15;;;;;;;;;;5001565;28;20478;-62
2023/05/08 01:46:16;;;;;;;;;;;;;;;;;;4997481;28;20038;-62
2023/05/08 01:48:59;;;;;;;10.40;4.45;;;;;;;;;;4999083;28;19916;-62
2023/05/08 01:51:26;;;;;;;9.55;5.18;;;;;;;;;;4999871;28;20328;-62
2023/05/08 01:53:55;;;;;;;9.13;4.43;;;;;;;;;;5004737;28;20033;-61
2023/05/08 01:56:21;;;;;;;8.48;4.40;;;;;;;;;;5011573;28;20052;-62
2023/05/08 01:58:48;;;;;;;8.30;4.53;;;;;;;;;;5005991;28;20083;-62
2023/05/08 02:01:14;;;;;;;8.30;4.70;;;;;;;;;;5006686;28;20033;-62
2023/05/08 02:03:40;;;;;;;8.40;4.90;;;;;;;;;;5005755;28;20026;-62
2023/05/08 02:06:06;;;;;;;8.25;4.63;;;;;;;;;;4998478;28;20045;-62
2023/05/08 02:08:32;;;;;;;9.15;5.15;;;;;;;;;;5006864;28;20030;-61
2023/05/08 02:10:58;;;;;;;8.00;4.65;;;;;;;;;;5001493;28;20015;-63
2023/05/08 02:13:24;;;;;;;7.20;4.43;;;;;;;;;;4999400;28;20062;-63
2023/05/08 02:15:51;;;;;;;7.68;4.47;;;;;;;;;;5011335;28;20375;-62
2023/05/08 02:18:19;;;;;;;11.27;4.72;;;;;;;;;;5006134;28;20018;-62
2023/05/08 02:20:45;;;;;;;9.98;5.00;;;;;;;;;;4996449;28;20022;-63
2023/05/08 02:23:11;;;;;;;7.78;4.55;;;;;;;;;;5010784;28;20037;-61
2023/05/08 02:25:37;;;;;;;9.43;4.85;;;;;;;;;;5003686;28;20042;-63
2023/05/08 02:28:02;;;;;;;9.27;4.65;;;;;;;;;;4998486;28;20030;-63
2023/05/08 02:30:28;;;;;;;9.68;5.05;;;;;;;;;;4995767;28;20033;-64
2023/05/08 02:32:54;;;;;;;8.25;4.82;;;;;;;;;;5000505;28;20026;-64
2023/05/08 02:35:19;;;;;;;9.65;5.47;;;;;;;;;;5005767;28;20026;-64
2023/05/08 02:37:46;;;;;;;9.63;5.37;;;;;;;;;;5010334;28;20022;-64
2023/05/08 02:40:12;;;;;;;9.85;5.30;;;;;;;;;;5002476;28;20196;-64
2023/05/08 02:42:38;;;;;;;9.07;5.32;;;;;;;;;;5009098;28;20037;-64
2023/05/08 02:45:03;;;;;;;11.33;5.37;;;;;;;;;;5004125;28;20018;-64
2023/05/08 02:47:32;;;;;;;9.25;5.22;;;;;;;;;;5002617;28;20028;-64
2023/05/08 02:50:23;;;;;;;9.05;4.97;;;;;;;;;;5008185;28;20109;-63
2023/05/08 02:52:58;;;;;;;9.02;4.75;;;;;;;;;;5008397;28;20477;-63
2023/05/08 02:55:23;;;;;;;10.50;5.43;;;;;;;;;;4999418;28;20377;-64
2023/05/08 02:58:03;;;;;;;9.53;5.33;;;;;;;;;;5002855;28;20034;-63
2023/05/08 03:00:34;;;;;;;9.02;5.03;;;;;;;;;;5002363;28;20066;-63
2023/05/08 03:03:01;;;;;;;9.95;5.85;;;;;;;;;;5004848;28;20046;-65
2023/05/08 03:05:29;;;;;;;10.30;5.25;;;;;;;;;;5009034;28;20026;-64
2023/05/08 03:07:56;;;;;;;9.43;5.50;;;;;;;;;;5011831;28;20018;-63
2023/05/08 03:10:23;;;;;;;8.73;5.03;;;;;;;;;;5001618;28;20518;-64
2023/05/08 03:12:50;;;;;;;9.48;5.57;;;;;;;;;;5012808;28;20061;-63
2023/05/08 03:15:15;;;;;;;;;;;;;;;;;;5004783;28;20025;-64
2023/05/08 03:17:42;;;;;;;9.82;5.07;;;;;;;;;;5001647;28;19924;-63
2023/05/08 03:20:08;;;;;;;8.55;4.72;;;;;;;;;;4996790;28;20022;-64
2023/05/08 03:22:35;;;;;;;11.45;5.43;;;;;;;;;;4995218;28;20030;-63
2023/05/08 03:25:01;;;;;;;10.52;5.80;;;;;;;;;;5001270;28;20097;-63
2023/05/08 03:27:27;;;;;;;9.95;5.47;;;;;;;;;;5009298;28;20100;-62
2023/05/08 03:29:53;;;;;;;9.57;5.70;;;;;;;;;;5002994;28;20505;-61
2023/05/08 03:32:18;;;;;;;9.20;5.28;;;;;;;;;;5002348;28;20026;-61
2023/05/08 03:34:44;;;;;;;9.63;5.22;;;;;;;;;;4993856;28;20088;-61
2023/05/08 03:37:09;;;;;;;9.80;5.20;;;;;;;;;;5000593;28;20026;-60
2023/05/08 03:39:34;;;;;;;9.43;5.87;;;;;;;;;;4996220;28;20497;-61
2023/05/08 03:41:59;;;;;;;10.93;6.07;;;;;;;;;;5009507;28;20496;-60
2023/05/08 03:44:27;;;;;;;10.73;5.97;;;;;;;;;;5011282;28;20041;-60
2023/05/08 03:46:54;;;;;;;10.50;5.53;;;;;;;;;;5001553;28;20023;-61
2023/05/08 03:49:21;;;;;;;10.75;5.70;;;;;;;;;;4997348;28;20030;-60
2023/05/08 03:51:46;;;;;;;12.05;6.35;;;;;;;;;;5000069;28;20047;-60
2023/05/08 03:54:11;;;;;;;10.95;5.57;;;;;;;;;;5009923;28;20481;-61
2023/05/08 03:56:37;;;;;;;10.52;5.57;;;;;;;;;;5012838;28;20083;-61
2023/05/08 03:59:12;;;;;;;11.88;5.35;;;;;;;;;;4992823;28;20033;-61
2023/05/08 04:01:39;;;;;;;13.32;6.00;;;;;;;;;;5022156;28;20156;-61
2023/05/08 04:04:04;;;;;;;10.82;5.55;;;;;;;;;;5013250;28;20096;-62
2023/05/08 04:06:38;;;;;;;9.40;5.50;;;;;;;;;;5012130;28;20222;-61
2023/05/08 04:09:06;;;;;;;11.60;5.80;;;;;;;;;;5012465;28;20026;-62
2023/05/08 04:11:40;;;;;;;11.48;5.18;;;;;;;;;;5011839;28;20529;-61
2023/05/08 04:14:07;;;;;;;10.60;5.50;;;;;;;;;;5000140;28;20034;-62
2023/05/08 04:16:35;;;;;;;10.48;5.40;;;;;;;;;;5001525;28;20022;-62
2023/05/08 04:19:01;;;;;;;9.70;5.85;;;;;;;;;;4999698;28;20390;-61
2023/05/08 04:21:27;;;;;;;10.00;5.00;;;;;;;;;;4995005;28;20034;-60
2023/05/08 04:23:54;;;;;;;10.18;5.68;;;;;;;;;;4993105;28;20105;-60
2023/05/08 04:26:21;;;;;;;8.43;5.07;;;;;;;;;;5006515;28;20377;-62
2023/05/08 04:28:46;;;;;;;9.93;5.40;;;;;;;;;;4992254;28;20030;-62
2023/05/08 04:31:12;;;;;;;9.73;5.70;;;;;;;;;;5003455;28;20022;-63
2023/05/08 04:33:38;;;;;;;9.15;5.72;;;;;;;;;;5001989;28;20025;-62
2023/05/08 04:36:03;;;;;;;10.18;5.18;;;;;;;;;;5011599;28;20028;-63
2023/05/08 04:38:28;;;;;;;8.38;4.70;;;;;;;;;;4999410;28;20157;-61
2023/05/08 04:40:54;;;;;;;8.87;5.03;;;;;;;;;;4989923;28;20292;-59
2023/05/08 04:43:19;;;;;;;11.52;5.68;;;;;;;;;;4997446;28;20774;-62
2023/05/08 04:45:44;;;;;;;9.65;5.50;;;;;;;;;;5006849;28;20147;-61
2023/05/08 04:48:09;;;;;;;9.07;4.47;;;;;;;;;;5007414;28;20497;-62
2023/05/08 04:50:35;;;;;;;9.47;4.93;;;;;;;;;;4993694;28;20033;-62
2023/05/08 04:53:00;;;;;;;9.83;4.97;;;;;;;;;;4999072;28;20370;-63
2023/05/08 04:55:25;;;;;;;9.20;4.67;;;;;;;;;;4992560;28;20077;-62
2023/05/08 04:57:50;;;;;;;8.38;4.45;;;;;;;;;;4996679;28;20477;-62
2023/05/08 05:00:15;;;;;;;7.43;4.63;;;;;;;;;;5002629;28;20066;-61
2023/05/08 05:02:40;;;;;;;9.77;5.10;;;;;;;;;;4996589;28;20025;-62
2023/05/08 05:05:06;;;;;;;7.68;4.53;;;;;;;;;;4998412;28;20625;-62
2023/05/08 05:07:31;;;;;;;7.07;4.20;;;;;;;;;;4994369;28;20022;-62
2023/05/08 05:09:56;;;;;;;9.05;4.60;;;;;;;;;;4993986;28;20449;-61
2023/05/08 05:12:21;;;;;;;8.65;4.13;;;;;;;;;;5004730;28;20030;-61
2023/05/08 05:14:46;;;;;;;7.60;4.07;;;;;;;;;;4989943;28;20030;-62
2023/05/08 05:17:11;;;;;;;6.40;3.88;;;;;;;;;;4992310;28;20477;-62
2023/05/08 05:19:37;;;;;;;6.30;3.50;;;;;;;;;;5004629;28;20131;-62
2023/05/08 05:22:02;;;;;;;6.68;3.90;;;;;;;;;;4996631;28;20042;-62
2023/05/08 05:24:27;;;;;;;6.63;3.97;;;;;;;;;;5008036;28;20445;-65
2023/05/08 05:26:52;;;;;;;7.47;3.97;;;;;;;;;;5004922;28;20089;-61
2023/05/08 05:29:17;;;;;;;7.28;3.95;;;;;;;;;;5004351;28;20028;-61
2023/05/08 05:31:43;;;;;;;6.17;3.77;;;;;;;;;;5008969;28;20022;-62
2023/05/08 05:34:08;;;;;;;7.28;3.65;;;;;;;;;;5011447;28;20124;-63
2023/05/08 05:36:33;;;;;;;7.40;3.67;;;;;;;;;;5009769;28;20021;-62
2023/05/08 05:38:58;;;;;;;7.95;3.50;;;;;;;;;;5010923;28;20036;-61
2023/05/08 05:41:24;;;;;;;5.57;3.10;;;;;;;;;;5019580;28;20032;-61
2023/05/08 05:43:49;;;;;;;6.68;3.60;;;;;;;;;;5011387;28;20028;-61
2023/05/08 05:46:15;;;;;;;6.67;3.37;;;;;;;;;;5007123;28;20030;-62
2023/05/08 05:48:40;;;;;;;6.60;3.30;;;;;;;;;;5016307;28;20018;-59
2023/05/08 05:51:05;;;;;;;6.27;3.10;;;;;;;;;;5001694;28;20023;-59
2023/05/08 05:53:30;;;;;;;5.87;2.87;;;;;;;;;;4995100;28;20615;-59
2023/05/08 05:55:55;;;;;;;5.15;2.80;;;;;;;;;;5012315;28;20101;-59
2023/05/08 05:58:21;;;;;;;5.28;2.95;;;;;;;;;;5006525;28;20034;-57
2023/05/08 06:00:49;;;;;;;4.97;2.57;;;;;;;;;;5004757;28;20126;-58
2023/05/08 06:03:14;;;;;;;6.93;2.90;;;;;;;;;;5009130;28;20026;-57
2023/05/08 06:05:39;;;;;;;6.80;3.17;;;;;;;;;;5009808;28;20113;-58
2023/05/08 06:08:05;;;;;;;5.60;2.70;;;;;;;;;;5002950;28;20532;-58
2023/05/08 06:10:30;;;;;;;5.85;2.80;;;;;;;;;;5014940;28;20109;-60
2023/05/08 06:12:55;;;;;;;6.00;2.80;;;;;;;;;;5013681;28;20026;-60
2023/05/08 06:15:20;;;;;;;5.85;2.70;;;;;;;;;;5008899;28;20049;-60
2023/05/08 06:17:46;;;;;;;5.25;2.72;;;;;;;;;;5010921;28;20048;-60
2023/05/08 06:20:11;;;;;;;5.67;2.90;;;;;;;;;;5014629;28;20366;-59
2023/05/08 06:22:38;;;;;;;7.00;2.60;;;;;;;;;;5005458;28;20033;-59
2023/05/08 06:25:05;;;;;;;5.30;2.60;;;;;;;;;;5016784;28;20022;-60
2023/05/08 06:27:30;;;;;;;5.65;2.65;;;;;;;;;;5009240;28;20022;-60
2023/05/08 06:29:56;;;;;;;6.38;2.65;;;;;;;;;;5013460;28;20056;-60
2023/05/08 06:32:21;;;;;;;5.18;2.50;;;;;;;;;;5013715;28;20402;-60
2023/05/08 06:34:46;;;;;;;5.53;2.30;;;;;;;;;;5006692;28;20022;-60
2023/05/08 06:37:11;;;;;;;4.95;2.50;;;;;;;;;;5005657;28;20373;-61
2023/05/08 06:39:36;;;;;;;6.13;2.40;;;;;;;;;;5006874;28;22434;-59
2023/05/08 06:42:03;;;;;;;4.80;2.42;;;;;;;;;;5014895;28;20021;-61
2023/05/08 06:44:28;;;;;;;5.18;2.53;;;;;;;;;;5010774;28;20030;-60
2023/05/08 06:46:54;;;;;;;4.93;2.53;;;;;;;;;;5014481;28;20050;-60
2023/05/08 06:49:19;;;;;;;5.10;2.60;;;;;;;;;;5013940;28;20038;-60
2023/05/08 06:51:44;;;;;;;5.10;2.50;;;;;;;;;;5004851;28;20432;-60
2023/05/08 06:54:09;;;;;;;5.23;2.50;;;;;;;;;;5000600;28;20022;-60
2023/05/08 06:56:35;;;;;;;4.97;2.30;;;;;;;;;;5006257;28;20089;-60
2023/05/08 06:59:00;;;;;;;5.47;2.40;;;;;;;;;;5013051;28;20373;-60
2023/05/08 07:01:25;;;;;;;5.77;2.60;;;;;;;;;;5015486;28;20485;-58
2023/05/08 07:03:50;;;;;;;4.97;2.50;;;;;;;;;;5008566;28;20412;-62
2023/05/08 07:06:15;;;;;;;5.82;2.17;;;;;;;;;;5009033;28;20023;-61
2023/05/08 07:08:41;;;;;;;5.97;2.50;;;;;;;;;;5007023;28;20057;-61
2023/05/08 07:11:08;;;;;;;5.32;2.40;;;;;;;;;;5005071;28;20030;-61
2023/05/08 07:13:34;;;;;;;5.68;2.20;;;;;;;;;;5010131;28;20044;-61
2023/05/08 07:15:59;;;;;;;5.57;2.43;;;;;;;;;;5010611;28;20114;-62
2023/05/08 07:18:24;;;;;;;4.53;2.20;;;;;;;;;;5006452;28;20037;-61
2023/05/08 07:20:50;;;;;;;4.57;2.13;;;;;;;;;;5010099;28;20025;-61
2023/05/08 07:23:15;;;;;;;4.30;1.90;;;;;;;;;;5010348;28;20624;-60
2023/05/08 07:25:40;;;;;;;4.50;1.90;;;;;;;;;;5015971;28;20029;-62
2023/05/08 07:28:06;;;;;;;3.90;2.07;;;;;;;;;;5030054;28;20027;-61
2023/05/08 07:30:32;;;;;;;5.50;2.00;;;;;;;;;;4998491;28;20030;-61
2023/05/08 07:32:57;;;;;;;4.25;1.90;;;;;;;;;;5008655;28;20172;-60
2023/05/08 07:35:22;;;;;;;4.70;1.83;;;;;;;;;;5012759;28;20097;-60
2023/05/08 07:37:48;;;;;;;4.18;1.83;;;;;;;;;;5014309;28;20029;-60
2023/05/08 07:40:14;;;;;;;4.18;1.70;;;;;;;;;;5013227;28;20029;-61
2023/05/08 07:42:43;;;;;;;4.73;1.80;;;;;;;;;;5013960;28;20049;-61
2023/05/08 07:45:08;;;;;;;5.00;1.75;;;;;;;;;;5026156;28;20471;-62
2023/05/08 07:47:34;;;;;;;4.13;1.58;;;;;;;;;;5006020;28;20925;-63
2023/05/08 07:49:59;;;;;;;4.20;1.60;;;;;;;;;;5013845;28;20033;-62
2023/05/08 07:52:25;;;;;;;3.77;1.43;;;;;;;;;;5013766;28;20029;-63
2023/05/08 07:54:50;;;;;;;4.18;1.70;;;;;;;;;;5013862;28;20456;-63
2023/05/08 07:57:15;;;;;;;3.90;1.70;;;;;;;;;;5004479;28;20085;-62
2023/05/08 07:59:40;;;;;;;3.90;1.60;;;;;;;;;;4993338;28;20018;-62
2023/05/08 08:02:06;;;;;;;3.70;1.35;;;;;;;;;;5007501;28;20080;-62
2023/05/08 08:04:31;;;;;;;3.95;1.50;;;;;;;;;;5013559;28;20477;-63
2023/05/08 08:06:56;;;;;;;4.40;1.40;;;;;;;;;;5013487;28;20022;-64
2023/05/08 08:09:21;;;;;;;4.23;1.50;;;;;;;;;;5013292;28;20457;-62
2023/05/08 08:11:47;;;;;;;3.67;1.40;;;;;;;;;;5013023;28;20030;-62
2023/05/08 08:14:12;;;;;;;5.27;1.50;;;;;;;;;;5006450;28;20466;-62
2023/05/08 08:16:37;;;;;;;2.95;1.30;;;;;;;;;;5013427;28;20022;-62
2023/05/08 08:19:02;;;;;;;3.85;1.45;;;;;;;;;;5013532;28;20022;-62
2023/05/08 08:21:27;;;;;;;3.70;1.30;;;;;;;;;;5010471;28;20520;-63
2023/05/08 08:23:52;;;;;;;5.37;1.43;;;;;;;;;;5005197;28;20393;-62
2023/05/08 08:26:18;;;;;;;2.80;1.02;;;;;;;;;;5005821;28;20033;-62
2023/05/08 08:28:43;;;;;;;3.23;1.17;;;;;;;;;;5007870;28;20025;-62
2023/05/08 08:31:08;;;;;;;2.85;1.17;;;;;;;;;;5012489;28;20097;-62
2023/05/08 08:33:33;;;;;;;3.43;1.30;;;;;;;;;;5012294;28;20030;-63
2023/05/08 08:35:58;;;;;;;3.92;1.38;;;;;;;;;;5016546;28;20503;-63
2023/05/08 08:38:23;;;;;;;5.00;1.37;;;;;;;;;;5016548;28;20092;-62
2023/05/08 08:40:49;;;;;;;4.80;1.30;;;;;;;;;;5009507;28;20487;-62
2023/05/08 08:43:14;;;;;;;3.43;1.30;;;;;;;;;;5012581;28;20018;-63
2023/05/08 08:45:39;;;;;;;4.75;1.40;;;;;;;;;;5011926;28;20418;-62
2023/05/08 08:48:08;;;;;;;3.30;1.20;;;;;;;;;;5011595;28;20021;-61
2023/05/08 08:50:34;;;;;;;2.80;1.05;;;;;;;;;;5010083;28;20501;-62
2023/05/08 08:53:09;;;;;;;3.38;1.10;;;;;;;;;;5025784;28;20029;-62
2023/05/08 08:55:36;;;;;;;3.67;1.23;;;;;;;;;;5012163;28;20049;-62
2023/05/08 08:58:07;;;;;;;2.85;1.02;;;;;;;;;;5012721;28;20093;-61
2023/05/08 09:00:35;;;;;;;3.75;1.20;;;;;;;;;;5012527;28;20056;-62
2023/05/08 09:03:00;;;;;;;4.00;1.10;;;;;;;;;;5012932;28;20057;-62
2023/05/08 09:05:26;;;;;;;4.53;1.20;;;;;;;;;;5018150;28;20049;-62
2023/05/08 09:07:53;;;;;;;4.22;0.90;;;;;;;;;;5026736;28;20025;-62
2023/05/08 09:10:18;;;;;;;3.40;1.23;;;;;;;;;;5009125;28;20117;-62
2023/05/08 09:12:44;;;;;;;5.38;1.10;;;;;;;;;;5012075;28;20144;-63
2023/05/08 09:15:10;;;;;;;3.22;1.05;;;;;;;;;;5012626;28;20033;-62
2023/05/08 09:17:35;;;;;;;4.75;1.10;;;;;;;;;;5012452;28;20382;-63
2023/05/08 09:20:00;;;;;;;4.40;1.10;;;;;;;;;;5011487;28;20018;-63
2023/05/08 09:22:26;;;;;;;2.67;0.90;;;;;;;;;;5023397;28;20033;-62
2023/05/08 09:24:56;;;;;;;3.17;1.15;;;;;;;;;;5012665;28;20013;-62
2023/05/08 09:27:22;;;;;;;3.80;1.15;;;;;;;;;;5012221;28;20431;-62
2023/05/08 09:30:03;;;;;;;6.03;1.20;;;;;;;;;;5012328;28;20018;-62
2023/05/08 09:32:32;;;;;;;2.75;1.13;;;;;;;;;;5011004;28;20366;-61
2023/05/08 09:34:58;;;;;;;3.15;0.98;;;;;;;;;;5011741;28;20025;-62
2023/05/08 09:37:23;;;;;;;4.05;1.10;;;;;;;;;;5012938;28;20102;-63
2023/05/08 09:39:48;;;;;;;3.95;1.05;;;;;;;;;;5011876;28;20045;-62
2023/05/08 09:42:14;;;;;;;3.70;1.10;;;;;;;;;;5007056;28;20109;-61
2023/05/08 09:44:43;;;;;;;3.78;1.10;;;;;;;;;;5008466;28;20076;-61
2023/05/08 09:47:09;;;;;;;3.35;1.10;;;;;;;;;;5021036;28;20013;-61
2023/05/08 09:49:34;;;;;;;3.35;1.10;;;;;;;;;;5031618;28;20021;-62
2023/05/08 09:52:00;;;;;;;3.92;1.20;;;;;;;;;;5031082;28;20029;-62
2023/05/08 09:54:25;;;;;;;4.65;1.27;;;;;;;;;;5013958;28;20036;-62
2023/05/08 09:56:50;;;;;;;4.80;1.42;;;;;;;;;;5011353;28;20033;-62
2023/05/08 09:59:25;;;;;;;3.10;1.20;;;;;;;;;;5011500;28;20025;-62
2023/05/08 10:01:51;;;;;;;3.03;1.30;;;;;;;;;;5010592;28;20029;-62
2023/05/08 10:04:16;;;;;;;3.58;1.40;;;;;;;;;;5011236;28;20022;-61
2023/05/08 10:06:41;;;;;;;3.40;1.33;;;;;;;;;;5008267;28;20030;-61
2023/05/08 10:09:07;;;;;;;3.20;1.00;;;;;;;;;;5016112;28;20437;-61
2023/05/08 10:11:32;;;;;;;3.08;1.30;;;;;;;;;;5010525;28;20018;-62
2023/05/08 10:13:58;;;;;;;2.92;0.98;;;;;;;;;;5022040;28;20022;-62
2023/05/08 10:16:23;;;;;;;3.30;1.00;;;;;;;;;;5030674;28;20021;-62
2023/05/08 10:18:49;;;;;;;3.30;1.30;;;;;;;;;;5030850;28;20049;-63
2023/05/08 10:21:15;;;;;;;3.10;1.10;;;;;;;;;;5030461;28;20029;-62
2023/05/08 10:23:45;;;;;;;3.40;1.30;;;;;;;;;;5024223;28;20010;-61
2023/05/08 10:26:12;;;;;;;3.17;1.13;;;;;;;;;;5008665;28;20101;-62
2023/05/08 10:28:49;;;;;;;3.55;1.30;;;;;;;;;;5029424;28;20033;-62
2023/05/08 10:31:16;;;;;;;3.95;1.30;;;;;;;;;;5030436;28;20021;-61
2023/05/08 10:33:43;;;;;;;3.35;1.20;;;;;;;;;;5010252;28;20022;-62
2023/05/08 10:36:09;;;;;;;3.85;1.30;;;;;;;;;;5011286;28;20061;-62
2023/05/08 10:38:35;;;;;;;3.80;1.30;;;;;;;;;;5011010;28;20639;-62
2023/05/08 10:41:01;;;;;;;4.25;1.33;;;;;;;;;;5006356;28;20057;-62
2023/05/08 10:43:27;;;;;;;4.00;1.20;;;;;;;;;;5003121;28;20584;-62
2023/05/08 10:45:52;;;;;;;;;;;;;;;;;;5011798;28;20033;-62
2023/05/08 10:48:36;;;;;;;3.30;1.20;;;;;;;;;;5010783;28;19906;-62
2023/05/08 10:51:06;;;;;;;3.85;1.30;;;;;;;;;;5010429;28;20030;-62
2023/05/08 10:53:35;;;;;;;7.57;1.60;;;;;;;;;;5010778;28;20496;-62
2023/05/08 10:56:00;;;;;;;3.05;1.25;;;;;;;;;;5006554;28;20037;-63
2023/05/08 10:58:30;;;;;;;4.23;1.50;;;;;;;;;;5017025;28;20021;-62
2023/05/08 11:01:02;;;;;;;4.93;1.38;;;;;;;;;;5022404;28;20036;-63
2023/05/08 11:03:28;;;;;;;4.15;1.20;;;;;;;;;;5025866;28;20084;-62
2023/05/08 11:05:54;;;;;;;2.92;1.15;;;;;;;;;;5010847;28;20021;-61
2023/05/08 11:08:23;;;;;;;3.05;1.10;;;;;;;;;;5011518;28;20053;-61
2023/05/08 11:10:57;;;;;;;4.03;1.40;;;;;;;;;;5001705;28;20100;-62
2023/05/08 11:13:26;;;;;;;4.88;1.45;;;;;;;;;;5012786;28;20030;-62
2023/05/08 11:15:51;;;;;;;3.95;1.30;;;;;;;;;;5006888;28;20030;-62
2023/05/08 11:18:16;;;;;;;3.95;1.25;;;;;;;;;;5014154;28;20024;-64
2023/05/08 11:20:54;;;;;;;3.27;1.20;;;;;;;;;;5013946;28;20452;-67
2023/05/08 11:23:23;;;;;;;3.55;1.20;;;;;;;;;;5014527;28;20034;-63
2023/05/08 11:25:57;;;;;;;4.22;1.20;;;;;;;;;;5010389;28;20018;-63
2023/05/08 11:28:22;;;;;;;3.88;1.30;;;;;;;;;;5004852;28;20022;-65
2023/05/08 11:30:51;;;;;;;3.63;1.13;;;;;;;;;;5014009;28;20342;-63
2023/05/08 11:33:17;;;;;;;4.03;1.30;;;;;;;;;;5014770;28;20037;-63
2023/05/08 11:35:43;;;;;;;3.30;1.20;;;;;;;;;;5014900;28;20079;-63
2023/05/08 11:38:27;;;;;;;3.42;1.10;;;;;;;;;;5014811;28;20448;-64
2023/05/08 11:41:02;;;;;;;4.00;1.30;;;;;;;;;;5013926;28;20608;-63
2023/05/08 11:43:30;;;;;;;3.95;1.45;;;;;;;;;;5007522;28;20496;-63
2023/05/08 11:45:58;;;;;;;2.80;1.02;;;;;;;;;;5013477;28;20026;-68
2023/05/08 11:48:23;;;;;;;4.43;1.20;;;;;;;;;;5012384;28;20097;-63
2023/05/08 11:50:50;;;;;;;3.50;1.10;;;;;;;;;;5021304;28;20655;-63
2023/05/08 11:53:15;;;;;;;2.78;1.00;;;;;;;;;;5033415;28;20020;-63
2023/05/08 11:55:40;;;;;;;2.67;1.10;;;;;;;;;;5026000;28;20401;-63
2023/05/08 11:58:11;;;;;;;3.50;1.33;;;;;;;;;;5007914;28;20072;-63
2023/05/08 12:00:44;;;;;;;3.00;1.00;;;;;;;;;;5012596;28;20867;-64
2023/05/08 12:03:17;;;;;;;3.90;1.27;;;;;;;;;;5010213;28;20053;-63
2023/05/08 12:05:42;;;;;;;2.97;1.10;;;;;;;;;;5032468;28;20024;-64
2023/05/08 12:08:07;;;;;;;3.57;1.10;;;;;;;;;;5031144;28;20112;-63
2023/05/08 12:10:59;;;;;;;2.85;1.00;;;;;;;;;;5021095;28;20510;-62
2023/05/08 12:13:27;;;;;;;2.75;0.93;;;;;;;;;;5010262;28;20036;-62
2023/05/08 12:15:57;;;;;;;3.00;0.80;;;;;;;;;;5013673;28;20018;-61
2023/05/08 12:18:22;;;;;;;2.55;0.85;;;;;;;;;;5012667;28;20163;-62
2023/05/08 12:20:58;;;;;;;3.67;0.80;;;;;;;;;;5012171;28;20117;-62
2023/05/08 12:23:23;;;;;;;2.40;0.80;;;;;;;;;;5005123;28;20018;-62
2023/05/08 12:25:55;;;;;;;3.08;0.90;;;;;;;;;;5009822;28;20122;-62
2023/05/08 12:28:20;;;;;;;2.72;0.77;;;;;;;;;;5013008;28;20026;-63
2023/05/08 12:30:46;;;;;;;2.58;0.93;;;;;;;;;;5012640;28;20018;-62
2023/05/08 12:33:11;;;;;;;3.75;1.25;;;;;;;;;;4999801;28;20157;-64
2023/05/08 12:35:37;;;;;;;4.25;1.20;;;;;;;;;;5029367;28;20037;-63
2023/05/08 12:38:04;;;;;;;2.80;1.15;;;;;;;;;;5031833;28;20021;-64
2023/05/08 12:40:54;;;;;;;5.20;1.05;;;;;;;;;;5015853;28;20505;-63
2023/05/08 12:43:19;;;;;;;3.30;0.98;;;;;;;;;;5012643;28;20037;-63
2023/05/08 12:45:44;;;;;;;2.80;0.90;;;;;;;;;;5012726;28;20369;-62
2023/05/08 12:48:10;;;;;;;2.60;0.83;;;;;;;;;;5017084;28;20024;-63
2023/05/08 12:50:40;;;;;;;3.95;0.82;;;;;;;;;;5031541;28;20026;-63
2023/05/08 12:53:09;;;;;;;2.03;0.70;;;;;;;;;;5032307;28;20029;-62
2023/05/08 12:55:35;;;;;;;2.63;0.90;;;;;;;;;;5011133;28;20449;-62
2023/05/08 12:58:00;;;;;;;3.25;0.90;;;;;;;;;;5012683;28;20026;-62
2023/05/08 13:00:33;;;;;;;3.47;1.00;;;;;;;;;;5010526;28;20036;-63
2023/05/08 13:02:58;;;;;;;4.75;1.00;;;;;;;;;;5008426;28;20026;-63
2023/05/08 13:05:23;;;;;;;2.63;0.82;;;;;;;;;;5010834;28;20531;-63
2023/05/08 13:07:50;;;;;;;3.30;1.02;;;;;;;;;;5018517;28;20116;-63
2023/05/08 13:10:15;;;;;;;;;;;;;;;;;;5018643;28;20049;-63
2023/05/08 13:12:40;;;;;;;3.05;0.90;;;;;;;;;;5011207;28;19956;-63
2023/05/08 13:15:05;;;;;;;3.23;0.80;;;;;;;;;;5012233;28;20481;-63
2023/05/08 13:17:31;;;;;;;3.05;1.00;;;;;;;;;;5011963;28;20028;-63
2023/05/08 13:19:56;;;;;;;2.03;0.70;;;;;;;;;;5005977;28;20077;-64
2023/05/08 13:22:25;;;;;;;3.30;1.13;;;;;;;;;;5004386;28;20038;-63
2023/05/08 13:24:50;;;;;;;2.88;1.00;;;;;;;;;;5010194;28;20030;-63
2023/05/08 13:27:15;;;;;;;2.42;0.90;;;;;;;;;;5007466;28;20092;-63
2023/05/08 13:29:40;;;;;;;4.77;1.00;;;;;;;;;;5006287;28;20478;-62
2023/05/08 13:32:05;;;;;;;2.58;0.88;;;;;;;;;;5017307;28;20646;-63
2023/05/08 13:34:31;;;;;;;2.55;0.90;;;;;;;;;;5031216;28;20100;-63
2023/05/08 13:36:56;;;;;;;2.83;0.87;;;;;;;;;;5013708;28;20022;-63
2023/05/08 13:39:21;;;;;;;2.90;0.83;;;;;;;;;;5011882;28;20459;-63
2023/05/08 13:41:46;;;;;;;4.05;1.00;;;;;;;;;;5030338;28;20563;-63
2023/05/08 13:44:11;;;;;;;2.75;0.93;;;;;;;;;;5011805;28;20232;-62
2023/05/08 13:46:36;;;;;;;2.60;0.88;;;;;;;;;;5004288;28;20485;-63
2023/05/08 13:49:02;;;;;;;3.65;1.00;;;;;;;;;;5019370;28;20026;-63
2023/05/08 13:51:27;;;;;;;2.90;0.88;;;;;;;;;;5013809;28;20057;-63
2023/05/08 13:53:52;;;;;;;5.90;1.30;;;;;;;;;;5007449;28;20032;-63
2023/05/08 13:56:17;;;;;;;4.53;1.60;;;;;;;;;;5026726;28;20017;-62
2023/05/08 13:58:42;;;;;;;6.18;1.98;;;;;;;;;;5021247;28;20014;-62
2023/05/08 14:01:07;;;;;;;5.60;1.40;;;;;;;;;;5005651;28;20516;-63
2023/05/08 14:03:32;;;;;;;5.28;1.63;;;;;;;;;;5020329;28;20021;-63
2023/05/08 14:05:58;;;;;;;4.38;1.67;;;;;;;;;;5019944;28;20412;-63
2023/05/08 14:08:23;;;;;;;3.57;1.07;;;;;;;;;;5010534;28;20064;-64
2023/05/08 14:10:48;;;;;;;9.88;1.50;;;;;;;;;;5004368;28;20450;-63
2023/05/08 14:13:13;;;;;;;4.32;1.50;;;;;;;;;;5011060;28;20079;-63
2023/05/08 14:15:39;;;;;;;5.72;1.50;;;;;;;;;;5021018;28;20017;-64
2023/05/08 14:18:04;;;;;;;4.82;1.52;;;;;;;;;;5022604;28;20624;-63
2023/05/08 14:20:29;;;;;;;3.88;1.50;;;;;;;;;;5030763;28;20025;-63
2023/05/08 14:22:55;;;;;;;4.50;1.47;;;;;;;;;;5030901;28;20131;-64
2023/05/08 14:25:20;;;;;;;6.43;1.60;;;;;;;;;;5020526;28;20092;-64
2023/05/08 14:27:45;;;;;;;4.18;1.38;;;;;;;;;;5011160;28;20045;-64
2023/05/08 14:30:10;;;;;;;5.38;1.52;;;;;;;;;;5010022;28;20125;-64
2023/05/08 14:32:36;;;;;;;6.15;1.70;;;;;;;;;;5010082;28;20037;-63
2023/05/08 14:35:01;;;;;;;5.97;1.40;;;;;;;;;;5017707;28;20120;-63
2023/05/08 14:37:26;;;;;;;3.73;1.57;;;;;;;;;;5016384;28;21466;-63
2023/05/08 14:39:53;;;;;;;5.95;1.77;;;;;;;;;;5003652;28;20420;-61
2023/05/08 14:42:18;;;;;;;6.88;1.80;;;;;;;;;;5010377;28;20026;-63